createdAt,value
2018-06-15T00:01:24.185Z,40.27
2018-06-15T00:03:52.703Z,42.67
2018-06-15T00:06:21.240Z,45.63
2018-06-15T00:08:49.708Z,41.00
2018-06-15T00:11:18.190Z,41.77
2018-06-15T00:13:46.624Z,39.43
2018-06-15T00:16:15.056Z,37.03
2018-06-15T00:18:43.689Z,40.73
2018-06-15T00:21:12.229Z,35.07
2018-06-15T00:23:41.093Z,39.47
2018-06-15T00:26:09.605Z,39.13
2018-06-15T00:28:38.087Z,39.77
2018-06-15T00:31:06.582Z,44.03
2018-06-15T00:33:35.138Z,38.70
2018-06-15T00:36:03.756Z,41.77
2018-06-15T00:38:32.209Z,37.23
2018-06-15T00:41:00.807Z,41.97
2018-06-15T00:43:29.269Z,39.27
2018-06-15T00:45:57.765Z,38.03
2018-06-15T00:48:26.355Z,42.30
2018-06-15T00:50:54.834Z,44.67
2018-06-15T00:53:23.334Z,40.87
2018-06-15T00:55:51.778Z,40.67
2018-06-15T00:58:20.201Z,40.00
2018-06-15T01:00:48.669Z,41.20
2018-06-15T01:03:17.157Z,41.63
2018-06-15T01:05:48.797Z,45.43
2018-06-15T01:08:17.259Z,40.40
2018-06-15T01:10:45.772Z,43.47
2018-06-15T01:13:14.225Z,43.70
2018-06-15T01:15:42.726Z,44.33
2018-06-15T01:18:11.202Z,43.93
2018-06-15T01:20:39.745Z,43.20
2018-06-15T01:23:08.259Z,39.73
2018-06-15T01:25:37.062Z,45.80
2018-06-15T01:28:05.489Z,45.10
2018-06-15T01:30:34.039Z,44.10
2018-06-15T01:33:02.553Z,45.40
2018-06-15T01:35:31.074Z,50.30
2018-06-15T01:37:59.730Z,47.50
2018-06-15T01:40:28.268Z,45.70
2018-06-15T01:42:56.704Z,46.17
2018-06-15T01:45:25.320Z,53.40
2018-06-15T01:47:53.797Z,50.90
2018-06-15T01:50:22.321Z,53.60
2018-06-15T01:52:50.972Z,62.13
2018-06-15T01:55:31.528Z,48.53
2018-06-15T01:58:00.043Z,56.70
2018-06-15T02:00:28.623Z,52.53
2018-06-15T02:02:57.096Z,43.93
2018-06-15T02:05:25.628Z,51.80
2018-06-15T02:07:54.068Z,48.30
2018-06-15T02:10:22.854Z,60.20
2018-06-15T02:12:51.365Z,61.47
2018-06-15T02:15:19.927Z,45.40
2018-06-15T02:17:48.378Z,48.93
2018-06-15T02:20:16.878Z,44.37
2018-06-15T02:22:45.284Z,53.73
2018-06-15T02:25:13.698Z,47.23
2018-06-15T02:27:42.201Z,57.10
2018-06-15T02:30:10.750Z,61.43
2018-06-15T02:32:39.278Z,61.73
2018-06-15T02:35:07.762Z,58.83
2018-06-15T02:37:36.256Z,65.90
2018-06-15T02:40:04.896Z,56.73
2018-06-15T02:42:33.818Z,58.97
2018-06-15T02:45:02.311Z,56.60
2018-06-15T02:47:30.881Z,47.20
2018-06-15T02:49:59.361Z,50.57
2018-06-15T02:52:27.834Z,51.37
2018-06-15T02:54:56.539Z,61.67
2018-06-15T02:57:25.057Z,61.93
2018-06-15T02:59:53.702Z,56.13
2018-06-15T03:02:22.177Z,67.47
2018-06-15T03:04:50.628Z,63.57
2018-06-15T03:07:19.193Z,56.80
2018-06-15T03:09:47.845Z,56.27
2018-06-15T03:12:17.043Z,63.20
2018-06-15T03:14:45.569Z,57.13
2018-06-15T03:17:13.994Z,62.77
2018-06-15T03:19:42.781Z,62.07
2018-06-15T03:22:11.424Z,51.50
2018-06-15T03:24:39.944Z,60.20
2018-06-15T03:27:29.958Z,56.80
2018-06-15T03:29:58.624Z,54.07
2018-06-15T03:32:27.113Z,53.30
2018-06-15T03:34:55.590Z,54.23
2018-06-15T03:37:24.051Z,56.73
2018-06-15T03:39:52.515Z,58.07
2018-06-15T03:42:21.158Z,50.77
2018-06-15T03:44:49.612Z,55.47
2018-06-15T03:47:18.094Z,55.93
2018-06-15T03:49:46.580Z,68.60
2018-06-15T03:52:15.061Z,74.27
2018-06-15T03:54:43.593Z,67.30
2018-06-15T03:57:12.188Z,71.57
2018-06-15T03:59:47.776Z,73.87
2018-06-15T04:02:54.152Z,60.90
2018-06-15T04:05:22.649Z,67.03
2018-06-15T04:07:51.077Z,58.33
2018-06-15T04:10:19.580Z,59.17
2018-06-15T04:12:48.062Z,64.40
2018-06-15T04:15:20.125Z,63.40
2018-06-15T04:17:52.701Z,62.47
2018-06-15T04:20:21.203Z,70.17
2018-06-15T04:22:49.924Z,56.60
2018-06-15T04:25:18.333Z,63.17
2018-06-15T04:27:46.864Z,61.33
2018-06-15T04:30:15.344Z,69.67
2018-06-15T04:32:43.792Z,59.00
2018-06-15T04:35:12.292Z,55.57
2018-06-15T04:37:40.776Z,70.60
2018-06-15T04:40:09.260Z,60.07
2018-06-15T04:42:37.939Z,66.57
2018-06-15T04:45:06.459Z,62.30
2018-06-15T04:47:34.909Z,57.20
2018-06-15T04:50:03.640Z,64.13
2018-06-15T04:52:32.050Z,58.67
2018-06-15T04:55:00.820Z,55.07
2018-06-15T04:57:29.763Z,51.80
2018-06-15T04:59:58.607Z,54.40
2018-06-15T05:02:27.249Z,55.53
2018-06-15T05:05:35.196Z,53.43
2018-06-15T05:08:03.728Z,52.90
2018-06-15T05:10:42.652Z,58.77
2018-06-15T05:13:11.395Z,55.33
2018-06-15T05:15:39.830Z,62.63
2018-06-15T05:18:08.349Z,54.10
2018-06-15T05:20:36.884Z,64.60
2018-06-15T05:23:06.653Z,74.00
2018-06-15T05:25:35.167Z,74.10
2018-06-15T05:28:03.660Z,58.80
2018-06-15T05:30:32.150Z,47.43
2018-06-15T05:33:00.729Z,62.30
2018-06-15T05:35:29.232Z,47.70
2018-06-15T05:37:58.177Z,62.83
2018-06-15T05:40:26.913Z,65.77
2018-06-15T05:42:55.358Z,76.70
2018-06-15T05:45:23.929Z,60.60
2018-06-15T05:47:52.424Z,48.23
2018-06-15T05:50:20.863Z,52.47
2018-06-15T05:52:49.425Z,60.07
2018-06-15T05:55:18.285Z,63.27
2018-06-15T05:57:46.801Z,54.97
2018-06-15T06:00:15.257Z,59.93
2018-06-15T06:02:43.763Z,47.37
2018-06-15T06:05:13.102Z,68.17
2018-06-15T06:07:41.782Z,64.73
2018-06-15T06:10:10.287Z,50.13
2018-06-15T06:12:38.723Z,61.90
2018-06-15T06:15:11.152Z,65.73
2018-06-15T06:17:39.768Z,50.23
2018-06-15T06:20:09.668Z,60.33
2018-06-15T06:22:59.743Z,48.90
2018-06-15T06:25:28.280Z,57.30
2018-06-15T06:27:56.814Z,57.63
2018-06-15T06:30:25.297Z,43.13
2018-06-15T06:32:54.100Z,57.20
2018-06-15T06:35:23.057Z,56.53
2018-06-15T06:37:51.688Z,40.03
2018-06-15T06:40:20.147Z,60.07
2018-06-15T06:42:48.731Z,43.03
2018-06-15T06:45:19.169Z,51.90
2018-06-15T06:47:47.761Z,41.57
2018-06-15T06:50:16.208Z,56.63
2018-06-15T06:52:44.756Z,40.17
2018-06-15T06:55:13.306Z,37.77
2018-06-15T06:57:43.017Z,37.30
2018-06-15T07:00:11.582Z,52.27
2018-06-15T07:02:40.112Z,38.90
2018-06-15T07:05:08.637Z,48.93
2018-06-15T07:07:37.191Z,38.77
2018-06-15T07:10:05.730Z,50.73
2018-06-15T07:12:34.181Z,38.20
2018-06-15T07:15:02.721Z,49.20
2018-06-15T07:17:31.173Z,40.87
2018-06-15T07:19:59.687Z,50.40
2018-06-15T07:22:28.798Z,38.67
2018-06-15T07:24:57.330Z,51.83
2018-06-15T07:27:27.104Z,34.93
2018-06-15T07:29:55.607Z,35.40
2018-06-15T07:32:24.057Z,34.03
2018-06-15T07:34:52.537Z,48.17
2018-06-15T07:37:21.037Z,37.40
2018-06-15T07:39:49.541Z,31.87
2018-06-15T07:42:18.028Z,30.63
2018-06-15T07:44:46.592Z,28.80
2018-06-15T07:47:15.054Z,39.30
2018-06-15T07:50:11.037Z,36.13
2018-06-15T07:52:39.519Z,32.07
2018-06-15T07:55:07.955Z,30.97
2018-06-15T07:57:36.487Z,31.57
2018-06-15T08:00:05.126Z,30.30
2018-06-15T08:02:41.475Z,27.73
2018-06-15T08:05:09.994Z,27.60
2018-06-15T08:07:38.476Z,26.77
2018-06-15T08:10:06.997Z,24.93
2018-06-15T08:12:35.426Z,27.27
2018-06-15T08:15:03.934Z,25.37
2018-06-15T08:17:32.357Z,23.47
2018-06-15T08:20:28.996Z,25.67
2018-06-15T08:22:57.545Z,27.97
2018-06-15T08:25:25.957Z,19.73
2018-06-15T08:27:54.611Z,21.23
2018-06-15T08:30:23.072Z,20.37
2018-06-15T08:33:32.904Z,17.03
2018-06-15T08:36:01.398Z,21.00
2018-06-15T08:38:29.893Z,16.30
2018-06-15T08:40:58.719Z,18.60
2018-06-15T08:43:27.271Z,20.03
2018-06-15T08:45:55.796Z,18.80
2018-06-15T08:48:24.294Z,16.00
2018-06-15T08:50:52.801Z,16.27
2018-06-15T08:53:21.298Z,17.20
2018-06-15T08:55:49.829Z,18.27
2018-06-15T08:58:18.347Z,16.40
2018-06-15T09:00:47.349Z,13.83
2018-06-15T09:03:15.880Z,12.80
2018-06-15T09:05:44.292Z,14.93
2018-06-15T09:08:12.820Z,16.90
2018-06-15T09:10:41.286Z,14.60
2018-06-15T09:13:10.530Z,12.23
2018-06-15T09:15:39.093Z,15.73
2018-06-15T09:18:07.680Z,14.07
2018-06-15T09:20:37.051Z,15.93
2018-06-15T09:23:05.524Z,16.80
2018-06-15T09:25:33.961Z,15.30
2018-06-15T09:28:02.489Z,14.00
2018-06-15T09:30:31.177Z,15.07
2018-06-15T09:33:01.100Z,16.43
2018-06-15T09:35:29.568Z,13.93
2018-06-15T09:37:58.155Z,17.73
2018-06-15T09:40:26.683Z,13.00
2018-06-15T09:42:55.239Z,9.73
2018-06-15T09:45:23.815Z,11.33
2018-06-15T09:47:52.387Z,13.27
2018-06-15T09:50:31.005Z,9.80
2018-06-15T09:52:59.654Z,10.87
2018-06-15T09:55:28.075Z,9.43
2018-06-15T09:57:56.681Z,8.67
2018-06-15T10:00:30.422Z,9.20
2018-06-15T10:02:58.943Z,8.50
2018-06-15T10:05:27.343Z,12.30
2018-06-15T10:07:55.813Z,9.20
2018-06-15T10:10:24.518Z,9.70
2018-06-15T10:12:53.035Z,9.30
2018-06-15T10:15:21.570Z,10.77
2018-06-15T10:17:50.079Z,9.20
2018-06-15T10:20:18.508Z,12.53
2018-06-15T10:22:47.003Z,8.67
2018-06-15T10:25:15.536Z,7.07
2018-06-15T10:27:44.004Z,9.63
2018-06-15T10:30:12.455Z,6.03
2018-06-15T10:32:40.941Z,8.40
2018-06-15T10:35:09.410Z,8.73
2018-06-15T10:37:38.059Z,8.67
2018-06-15T10:40:06.600Z,7.90
2018-06-15T10:42:35.008Z,8.43
2018-06-15T10:45:03.586Z,7.70
2018-06-15T10:47:32.142Z,9.03
2018-06-15T10:50:00.623Z,7.50
2018-06-15T10:52:29.223Z,11.63
2018-06-15T10:55:36.418Z,10.07
2018-06-15T10:58:05.170Z,7.53
2018-06-15T11:00:33.655Z,9.10
2018-06-15T11:03:02.238Z,7.17
2018-06-15T11:05:36.233Z,8.53
2018-06-15T11:08:04.720Z,9.60
2018-06-15T11:10:33.306Z,10.53
2018-06-15T11:13:01.800Z,6.13
2018-06-15T11:15:30.254Z,7.70
2018-06-15T11:17:58.859Z,9.87
2018-06-15T11:20:27.426Z,6.33
2018-06-15T11:22:55.908Z,8.67
2018-06-15T11:25:24.632Z,6.73
2018-06-15T11:27:53.096Z,7.63
2018-06-15T11:30:21.587Z,10.87
2018-06-15T11:32:50.059Z,9.00
2018-06-15T11:35:18.821Z,6.27
2018-06-15T11:37:47.373Z,6.60
2018-06-15T11:40:15.810Z,8.17
2018-06-15T11:42:44.230Z,6.40
2018-06-15T11:46:01.786Z,6.20
2018-06-15T11:48:30.287Z,7.97
2018-06-15T11:50:58.735Z,6.57
2018-06-15T11:53:27.217Z,6.17
2018-06-15T11:55:55.748Z,6.53
2018-06-15T11:58:24.212Z,7.40
2018-06-15T12:00:52.730Z,7.37
2018-06-15T12:03:21.275Z,11.23
2018-06-15T12:05:49.767Z,12.17
2018-06-15T12:08:44.624Z,12.10
2018-06-15T12:11:13.130Z,8.60
2018-06-15T12:13:41.668Z,7.23
2018-06-15T12:16:10.192Z,8.47
2018-06-15T12:18:38.689Z,6.97
2018-06-15T12:21:07.101Z,10.10
2018-06-15T12:23:35.708Z,8.80
2018-06-15T12:26:04.291Z,7.20
2018-06-15T12:28:32.798Z,9.33
2018-06-15T12:31:01.304Z,10.17
2018-06-15T12:33:29.781Z,8.97
2018-06-15T12:35:58.260Z,7.13
2018-06-15T12:38:26.716Z,9.00
2018-06-15T12:40:56.392Z,7.63
2018-06-15T12:43:24.941Z,7.77
2018-06-15T12:45:53.465Z,8.20
2018-06-15T12:48:21.925Z,7.27
2018-06-15T12:50:50.409Z,8.50
2018-06-15T12:53:19.029Z,8.57
2018-06-15T12:55:48.161Z,6.43
2018-06-15T12:58:16.753Z,12.00
2018-06-15T13:00:45.255Z,6.53
2018-06-15T13:03:13.816Z,7.73
2018-06-15T13:05:42.437Z,10.47
2018-06-15T13:08:11.129Z,8.90
2018-06-15T13:11:14.498Z,5.73
2018-06-15T13:13:43.089Z,10.60
2018-06-15T13:16:11.657Z,8.97
2018-06-15T13:18:40.219Z,7.27
2018-06-15T13:21:08.697Z,8.97
2018-06-15T13:23:37.639Z,7.20
2018-06-15T13:26:06.408Z,7.77
2018-06-15T13:29:24.301Z,7.80
2018-06-15T13:31:52.809Z,7.13
2018-06-15T13:34:21.299Z,6.33
2018-06-15T13:36:49.813Z,10.67
2018-06-15T13:39:18.359Z,6.97
2018-06-15T13:41:47.644Z,7.07
2018-06-15T13:44:16.260Z,6.87
2018-06-15T13:46:44.829Z,8.63
2018-06-15T13:49:13.396Z,8.10
2018-06-15T13:51:41.984Z,9.20
2018-06-15T13:54:13.850Z,12.77
2018-06-15T13:56:42.347Z,14.70
2018-06-15T13:59:20.125Z,11.10
2018-06-15T14:01:48.626Z,8.83
2018-06-15T14:04:17.192Z,11.13
2018-06-15T14:06:45.672Z,7.93
2018-06-15T14:09:14.113Z,10.80
2018-06-15T14:11:42.713Z,12.90
2018-06-15T14:14:11.235Z,9.17
2018-06-15T14:16:39.689Z,10.33
2018-06-15T14:19:08.280Z,5.73
2018-06-15T14:21:36.770Z,9.07
2018-06-15T14:24:05.445Z,8.13
2018-06-15T14:26:36.212Z,8.20
2018-06-15T14:29:04.776Z,8.57
2018-06-15T14:31:39.074Z,9.00
2018-06-15T14:34:07.608Z,9.93
2018-06-15T14:36:36.157Z,12.47
2018-06-15T14:39:07.199Z,7.13
2018-06-15T14:41:35.771Z,9.70
2018-06-15T14:44:04.466Z,7.83
2018-06-15T14:46:32.929Z,7.17
2018-06-15T14:49:01.418Z,8.70
2018-06-15T14:51:29.904Z,9.33
2018-06-15T14:53:58.513Z,6.17
2018-06-15T14:56:26.941Z,13.90
2018-06-15T14:59:00.193Z,7.77
2018-06-15T15:01:28.736Z,5.60
2018-06-15T15:03:57.159Z,7.93
2018-06-15T15:06:25.719Z,9.00
2018-06-15T15:08:54.686Z,8.17
2018-06-15T15:11:52.182Z,11.40
2018-06-15T15:14:20.625Z,13.20
2018-06-15T15:16:49.180Z,6.87
2018-06-15T15:19:17.653Z,7.40
2018-06-15T15:21:46.109Z,8.27
2018-06-15T15:24:14.786Z,8.17
2018-06-15T15:26:43.248Z,8.47
2018-06-15T15:29:11.935Z,6.47
2018-06-15T15:31:40.725Z,9.17
2018-06-15T15:34:09.396Z,10.53
2018-06-15T15:36:37.864Z,15.43
2018-06-15T15:39:08.711Z,7.97
2018-06-15T15:41:37.243Z,9.43
2018-06-15T15:44:06.205Z,6.53
2018-06-15T15:46:34.675Z,7.60
2018-06-15T15:49:03.227Z,9.17
2018-06-15T15:51:31.729Z,8.27
2018-06-15T15:54:00.290Z,8.50
2018-06-15T15:56:28.913Z,11.33
2018-06-15T15:58:57.596Z,7.90
2018-06-15T16:01:26.040Z,7.27
2018-06-15T16:04:05.717Z,8.87
2018-06-15T16:06:41.464Z,6.93
2018-06-15T16:09:20.579Z,8.90
2018-06-15T16:11:49.093Z,12.87
2018-06-15T16:14:17.656Z,10.40
2018-06-15T16:16:46.154Z,10.67
2018-06-15T16:19:14.876Z,16.27
2018-06-15T16:22:14.460Z,12.57
2018-06-15T16:24:43.002Z,8.67
2018-06-15T16:27:11.517Z,9.43
2018-06-15T16:29:40.189Z,6.63
2018-06-15T16:32:09.271Z,7.97
2018-06-15T16:34:38.979Z,9.03
2018-06-15T16:37:07.459Z,7.77
2018-06-15T16:39:36.200Z,8.23
2018-06-15T16:42:04.780Z,11.53
2018-06-15T16:44:33.445Z,6.60
2018-06-15T16:47:02.003Z,7.50
2018-06-15T16:49:41.045Z,8.37
2018-06-15T16:52:09.623Z,7.77
2018-06-15T16:54:38.115Z,7.90
2018-06-15T16:57:06.715Z,11.70
2018-06-15T16:59:35.164Z,7.63
2018-06-15T17:02:03.666Z,13.10
2018-06-15T17:04:32.176Z,8.37
2018-06-15T17:07:00.738Z,10.90
2018-06-15T17:09:29.177Z,7.77
2018-06-15T17:11:57.674Z,8.70
2018-06-15T17:14:26.318Z,10.83
2018-06-15T17:16:54.781Z,10.20
2018-06-15T17:19:27.163Z,9.57
2018-06-15T17:21:55.752Z,7.23
2018-06-15T17:24:24.324Z,11.47
2018-06-15T17:26:52.902Z,7.67
2018-06-15T17:29:21.473Z,6.90
2018-06-15T17:31:53.910Z,6.87
2018-06-15T17:34:22.328Z,8.03
2018-06-15T17:36:50.897Z,6.30
2018-06-15T17:39:19.354Z,7.80
2018-06-15T17:41:48.525Z,10.93
2018-06-15T17:44:17.239Z,9.97
2018-06-15T17:46:45.743Z,8.97
2018-06-15T17:49:14.232Z,8.80
2018-06-15T17:51:42.698Z,8.27
2018-06-15T17:54:11.162Z,9.90
2018-06-15T17:57:10.556Z,9.53
2018-06-15T17:59:39.104Z,6.23
2018-06-15T18:02:08.460Z,10.03
2018-06-15T18:04:36.997Z,6.93
2018-06-15T18:07:05.769Z,11.40
2018-06-15T18:09:42.100Z,7.63
2018-06-15T18:12:10.646Z,7.10
2018-06-15T18:14:39.913Z,10.47
2018-06-15T18:17:08.364Z,7.13
2018-06-15T18:19:36.943Z,8.80
2018-06-15T18:22:05.477Z,11.10
2018-06-15T18:24:34.026Z,12.70
2018-06-15T18:27:03.124Z,7.63
2018-06-15T18:29:32.520Z,9.47
2018-06-15T18:32:01.309Z,9.40
2018-06-15T18:34:29.795Z,10.90
2018-06-15T18:36:58.300Z,6.23
2018-06-15T18:39:26.966Z,12.07
2018-06-15T18:41:55.623Z,13.43
2018-06-15T18:44:24.187Z,10.47
2018-06-15T18:46:52.656Z,9.17
2018-06-15T18:49:21.089Z,6.10
2018-06-15T18:51:49.769Z,8.53
2018-06-15T18:54:19.472Z,8.20
2018-06-15T18:56:47.972Z,9.07
2018-06-15T18:59:16.436Z,9.63
2018-06-15T19:01:45.022Z,6.77
2018-06-15T19:04:13.533Z,9.90
2018-06-15T19:06:42.085Z,11.00
2018-06-15T19:09:11.643Z,10.20
2018-06-15T19:11:40.221Z,12.07
2018-06-15T19:14:08.736Z,10.33
2018-06-15T19:16:37.243Z,15.97
2018-06-15T19:19:05.930Z,11.50
2018-06-15T19:21:34.420Z,9.20
2018-06-15T19:24:03.006Z,12.40
2018-06-15T19:26:31.895Z,9.20
2018-06-15T19:29:00.413Z,8.33
2018-06-15T19:31:28.979Z,9.40
2018-06-15T19:33:57.607Z,10.17
2018-06-15T19:36:26.156Z,8.30
2018-06-15T19:38:54.634Z,13.90
2018-06-15T19:41:23.286Z,10.67
2018-06-15T19:43:51.761Z,16.17
2018-06-15T19:46:20.255Z,9.17
2018-06-15T19:48:48.958Z,13.23
2018-06-15T19:51:17.425Z,12.10
2018-06-15T19:53:45.904Z,14.87
2018-06-15T19:56:14.416Z,9.53
2018-06-15T19:58:43.052Z,11.50
2018-06-15T20:01:11.548Z,16.20
2018-06-15T20:03:40.005Z,9.90
2018-06-15T20:06:09.102Z,7.50
2018-06-15T23:02:58.028Z,14.83
2018-06-15T23:05:27.494Z,17.73
2018-06-15T23:07:56.080Z,23.07
2018-06-15T23:10:24.579Z,21.20
2018-06-15T23:12:53.275Z,17.40
2018-06-15T23:15:21.733Z,17.77
2018-06-15T23:17:50.207Z,17.37
2018-06-15T23:20:18.702Z,20.43
2018-06-15T23:22:47.933Z,15.50
2018-06-15T23:25:16.798Z,23.03
2018-06-15T23:27:45.264Z,21.13
2018-06-15T23:30:13.693Z,14.50
2018-06-15T23:32:42.233Z,22.43
2018-06-15T23:35:10.709Z,19.27
2018-06-15T23:37:39.259Z,17.93
2018-06-15T23:40:07.695Z,24.50
2018-06-15T23:42:36.177Z,19.47
2018-06-15T23:45:04.645Z,16.03
2018-06-15T23:47:33.128Z,19.03
2018-06-15T23:50:01.820Z,19.03
2018-06-15T23:52:30.313Z,16.47
2018-06-15T23:54:58.777Z,15.13
2018-06-15T23:57:27.269Z,17.57
2018-06-15T23:59:55.841Z,15.27
